Terminal Aerodrome Forecast
Issued by NWS

Home | Current Version | Previous Version | Text Only | Print | Product List | Glossary On
Versions: 1 2 3 4 5 6 7 8 9 10 11 12 13 14 15 16 17 18 19 20 21 22 23 24 25 26 27 28 29 30 31 32 33 34 35 36 37 38 39 40 41 42 43 44 45 46 47 48 49 50
000
FTUS45 KBOU 152227 AAB
TAFBJC
TAF AMD
KBJC 152227Z 1522/1618 31009KT P6SM SCT070 BKN110
      TEMPO 1600/1601 VRB20G35KT -TSRA BKN070CB
     FM160100 03014G24KT P6SM VCTS SCT070CB BKN100
      TEMPO 1601/1604 TSRA BKN060CB
     FM160500 04009KT P6SM VCSH SCT030 OVC050
     FM161000 06007KT P6SM OVC015
     FM161600 VRB05KT P6SM SCT015 OVC040=

USA.gov is the U.S. government's official web portal to all federal, state and local government web resources and services.